Terminal Aerodrome Forecast
Issued by NWS

Home | Current Version | Previous Version | Text Only | Print | Product List | Glossary Off
Versions: 1 2 3 4 5 6 7 8 9 10 11 12 13 14 15 16 17 18 19 20 21

000
FTUS43 KMPX 191100 RRA
TAFAXN
TAF
KAXN 191142Z 1912/2012 19016G22KT P6SM OVC035
     FM191300 18017G23KT P6SM -SHRA OVC025
      TEMPO 1915/1918 OVC012
     FM191800 19014G20KT P6SM VCSH SCT015 OVC035
     FM192100 21012KT P6SM BKN050
     FM200800 28008KT P6SM BKN250=

USA.gov is the U.S. government's official web portal to all federal, state and local government web resources and services.